createdAt,value
2016-09-23T00:00:26.095Z,0
2016-09-23T00:01:25.752Z,0
2016-09-23T00:02:26.017Z,0
2016-09-23T00:03:26.283Z,0
2016-09-23T00:04:26.246Z,0
2016-09-23T00:05:26.206Z,0
2016-09-23T00:06:25.865Z,0
2016-09-23T00:07:25.856Z,0
2016-09-23T00:08:26.096Z,0
2016-09-23T00:09:25.457Z,0
2016-09-23T00:10:25.418Z,0
2016-09-23T00:11:25.982Z,0
2016-09-23T00:12:25.356Z,0
2016-09-23T00:13:25.910Z,0
2016-09-23T00:14:25.885Z,0
2016-09-23T00:15:25.838Z,0
2016-09-23T00:16:25.498Z,0
2016-09-23T00:17:25.461Z,0
2016-09-23T00:18:25.427Z,0
2016-09-23T00:19:25.393Z,0
2016-09-23T00:20:25.649Z,0
2016-09-23T00:21:25.313Z,0
2016-09-23T00:22:24.667Z,0
2016-09-23T00:23:25.544Z,0
2016-09-23T00:24:25.199Z,0
2016-09-23T00:25:25.467Z,0
2016-09-23T00:26:25.430Z,0
2016-09-23T00:27:25.397Z,0
2016-09-23T00:28:24.754Z,0
2016-09-23T00:29:25.326Z,0
2016-09-23T00:30:25.288Z,0
2016-09-23T00:31:24.937Z,0
2016-09-23T00:32:24.604Z,0
2016-09-23T00:33:25.172Z,0
2016-09-23T00:34:24.833Z,0
2016-09-23T00:35:24.808Z,0
2016-09-23T00:36:25.078Z,0
2016-09-23T00:37:24.722Z,0
2016-09-23T00:38:24.680Z,0
2016-09-23T00:39:24.948Z,0
2016-09-23T00:40:24.915Z,0
2016-09-23T00:41:24.885Z,0
2016-09-23T00:42:24.230Z,0
2016-09-23T00:43:24.806Z,0
2016-09-23T00:44:24.465Z,0
2016-09-23T00:45:24.427Z,0
2016-09-23T00:46:24.693Z,0
2016-09-23T00:47:24.647Z,0
2016-09-23T00:48:24.623Z,0
2016-09-23T00:49:24.280Z,0
2016-09-23T00:50:24.539Z,0
2016-09-23T00:51:24.506Z,0
2016-09-23T00:52:24.469Z,0
2016-09-23T00:53:24.432Z,0
2016-09-23T00:54:24.090Z,0
2016-09-23T00:55:24.060Z,0
2016-09-23T00:56:23.407Z,0
2016-09-23T00:57:23.977Z,0
2016-09-23T00:58:23.965Z,0
2016-09-23T00:59:24.202Z,0
2016-09-23T01:00:23.884Z,0
2016-09-23T01:01:24.134Z,0
2016-09-23T01:02:23.191Z,0
2016-09-23T01:03:23.454Z,0
2016-09-23T01:04:23.717Z,0
2016-09-23T01:05:23.682Z,0
2016-09-23T01:06:23.650Z,0
2016-09-23T01:07:23.615Z,0
2016-09-23T01:08:23.872Z,0
2016-09-23T01:09:23.851Z,0
2016-09-23T01:10:23.505Z,0
2016-09-23T01:11:23.154Z,0
2016-09-23T01:12:23.423Z,0
2016-09-23T01:13:23.080Z,0
2016-09-23T01:14:23.345Z,0
2016-09-23T01:15:23.615Z,0
2016-09-23T01:16:22.979Z,0
2016-09-23T01:17:23.536Z,0
2016-09-23T01:18:23.199Z,0
2016-09-23T01:19:23.460Z,0
2016-09-23T01:20:23.139Z,0
2016-09-23T01:21:23.388Z,0
2016-09-23T01:22:22.744Z,0
2016-09-23T01:23:23.022Z,0
2016-09-23T01:24:22.983Z,0
2016-09-23T01:25:23.243Z,0
2016-09-23T01:26:22.902Z,0
2016-09-23T01:27:22.561Z,0
2016-09-23T01:28:22.824Z,0
2016-09-23T01:29:23.097Z,0
2016-09-23T01:30:23.050Z,0
2016-09-23T01:31:23.020Z,0
2016-09-23T01:32:22.984Z,0
2016-09-23T01:33:22.643Z,0
2016-09-23T01:34:22.603Z,0
2016-09-23T01:35:22.569Z,0
2016-09-23T01:36:22.840Z,0
2016-09-23T01:37:22.187Z,0
2016-09-23T01:38:22.757Z,0
2016-09-23T01:39:22.416Z,0
2016-09-23T01:40:22.683Z,0
2016-09-23T01:41:22.042Z,0
2016-09-23T01:42:22.303Z,0
2016-09-23T01:43:22.572Z,0
2016-09-23T01:44:22.528Z,0
2016-09-23T01:45:22.507Z,0
2016-09-23T01:46:21.852Z,0
2016-09-23T01:47:22.437Z,0
2016-09-23T01:48:22.085Z,0
2016-09-23T01:49:22.043Z,0
2016-09-23T01:50:21.702Z,0
2016-09-23T01:51:22.270Z,0
2016-09-23T01:52:22.238Z,0
2016-09-23T01:53:21.592Z,0
2016-09-23T01:54:21.875Z,0
2016-09-23T01:55:21.833Z,0
2016-09-23T01:56:22.101Z,0
2016-09-23T01:57:22.053Z,0
2016-09-23T01:58:22.015Z,0
2016-09-23T01:59:21.969Z,0
2016-09-23T02:00:21.939Z,0
2016-09-23T02:01:21.903Z,0
2016-09-23T02:02:21.572Z,0
2016-09-23T02:03:21.826Z,0
2016-09-23T02:04:21.485Z,0
2016-09-23T02:05:21.748Z,0
2016-09-23T02:06:21.118Z,0
2016-09-23T02:07:21.380Z,0
2016-09-23T02:08:21.340Z,0
2016-09-23T02:09:21.298Z,0
2016-09-23T02:10:20.958Z,0
2016-09-23T02:11:20.930Z,0
2016-09-23T02:12:20.889Z,0
2016-09-23T02:13:21.153Z,0
2016-09-23T02:14:21.412Z,0
2016-09-23T02:15:21.083Z,0
2016-09-23T02:16:21.034Z,0
2016-09-23T02:17:21.004Z,0
2016-09-23T02:18:20.965Z,0
2016-09-23T02:19:21.231Z,0
2016-09-23T02:20:20.884Z,0
2016-09-23T02:21:20.567Z,0
2016-09-23T02:22:21.119Z,0
2016-09-23T02:23:20.777Z,0
2016-09-23T02:24:20.744Z,0
2016-09-23T02:25:20.712Z,0
2016-09-23T02:26:20.676Z,0
2016-09-23T02:27:20.638Z,0
2016-09-23T02:28:20.315Z,0
2016-09-23T02:29:20.849Z,0
2016-09-23T02:30:20.815Z,0
2016-09-23T02:31:20.782Z,0
2016-09-23T02:32:19.834Z,0
2016-09-23T02:33:20.708Z,0
2016-09-23T02:34:20.065Z,0
2016-09-23T02:35:20.030Z,0
2016-09-23T02:36:20.296Z,0
2016-09-23T02:37:20.572Z,0
2016-09-23T02:38:20.533Z,0
2016-09-23T02:39:19.579Z,0
2016-09-23T02:40:20.145Z,0
2016-09-23T02:41:20.404Z,0
2016-09-23T02:42:20.377Z,0
2016-09-23T02:43:20.034Z,0
2016-09-23T02:44:20.296Z,0
2016-09-23T02:45:19.650Z,0
2016-09-23T02:46:19.621Z,0
2016-09-23T02:47:20.189Z,0
2016-09-23T02:48:19.540Z,0
2016-09-23T02:49:19.811Z,0
2016-09-23T02:50:19.469Z,0
2016-09-23T02:51:19.138Z,0
2016-09-23T02:52:19.693Z,0
2016-09-23T02:53:19.356Z,0
2016-09-23T02:54:19.627Z,0
2016-09-23T02:55:19.888Z,0
2016-09-23T02:56:19.851Z,0
2016-09-23T02:57:18.901Z,0
2016-09-23T02:58:19.774Z,0
2016-09-23T02:59:19.129Z,0
2016-09-23T03:00:19.400Z,0
2016-09-23T03:01:19.378Z,0
2016-09-23T03:02:19.317Z,0
2016-09-23T03:03:18.989Z,0
2016-09-23T03:04:19.546Z,0
2016-09-23T03:05:19.207Z,0
2016-09-23T03:06:19.173Z,0
2016-09-23T03:07:18.831Z,0
2016-09-23T03:08:19.097Z,0
2016-09-23T03:09:19.057Z,0
2016-09-23T03:10:19.025Z,0
2016-09-23T03:11:18.984Z,0
2016-09-23T03:12:19.248Z,0
2016-09-23T03:13:18.609Z,0
2016-09-23T03:14:18.884Z,0
2016-09-23T03:15:18.837Z,0
2016-09-23T03:16:19.092Z,0
2016-09-23T03:17:19.086Z,0
2016-09-23T03:18:19.025Z,0
2016-09-23T03:19:18.685Z,0
2016-09-23T03:20:18.651Z,0
2016-09-23T03:21:18.912Z,0
2016-09-23T03:22:18.883Z,0
2016-09-23T03:23:18.232Z,0
2016-09-23T03:24:18.802Z,0
2016-09-23T03:25:18.460Z,0
2016-09-23T03:26:18.732Z,0
2016-09-23T03:27:18.386Z,0
2016-09-23T03:28:18.354Z,0
2016-09-23T03:29:18.616Z,0
2016-09-23T03:30:18.273Z,0
2016-09-23T03:31:18.559Z,0
2016-09-23T03:32:18.500Z,0
2016-09-23T03:33:17.869Z,0
2016-09-23T03:34:18.130Z,0
2016-09-23T03:35:18.395Z,0
2016-09-23T03:36:18.055Z,0
2016-09-23T03:37:17.410Z,0
2016-09-23T03:38:18.287Z,0
2016-09-23T03:39:17.944Z,0
2016-09-23T03:40:18.200Z,0
2016-09-23T03:41:17.864Z,0
2016-09-23T03:42:18.130Z,0
2016-09-23T03:43:18.095Z,0
2016-09-23T03:44:17.749Z,0
2016-09-23T03:45:17.409Z,0
2016-09-23T03:46:17.376Z,0
2016-09-23T03:47:17.644Z,0
2016-09-23T03:48:17.906Z,0
2016-09-23T03:49:17.868Z,0
2016-09-23T03:50:17.829Z,0
2016-09-23T03:51:17.503Z,0
2016-09-23T03:52:17.460Z,0
2016-09-23T03:53:17.417Z,0
2016-09-23T03:54:17.685Z,0
2016-09-23T03:55:17.343Z,0
2016-09-23T03:56:17.611Z,0
2016-09-23T03:57:17.589Z,0
2016-09-23T03:58:16.936Z,0
2016-09-23T03:59:17.203Z,0
2016-09-23T04:00:17.165Z,0
2016-09-23T04:01:17.124Z,0
2016-09-23T04:02:16.787Z,0
2016-09-23T04:03:17.050Z,0
2016-09-23T04:04:17.014Z,0
2016-09-23T04:05:16.965Z,0
2016-09-23T04:06:16.946Z,0
2016-09-23T04:07:16.897Z,0
2016-09-23T04:08:17.168Z,0
2016-09-23T04:09:16.826Z,0
2016-09-23T04:10:17.090Z,0
2016-09-23T04:11:17.056Z,0
2016-09-23T04:12:17.015Z,0
2016-09-23T04:13:16.988Z,0
2016-09-23T04:14:16.639Z,0
2016-09-23T04:15:16.598Z,0
2016-09-23T04:16:16.872Z,0
2016-09-23T04:17:16.839Z,0
2016-09-23T04:18:16.497Z,0
2016-09-23T04:19:16.757Z,0
2016-09-23T04:20:16.732Z,0
2016-09-23T04:21:16.681Z,0
2016-09-23T04:22:15.740Z,0
2016-09-23T04:23:16.611Z,0
2016-09-23T04:24:16.262Z,0
2016-09-23T04:25:16.534Z,0
2016-09-23T04:26:16.495Z,0
2016-09-23T04:27:15.852Z,0
2016-09-23T04:28:16.433Z,0
2016-09-23T04:29:15.781Z,0
2016-09-23T04:30:16.047Z,0
2016-09-23T04:31:15.715Z,0
2016-09-23T04:32:15.666Z,0
2016-09-23T04:33:16.250Z,0
2016-09-23T04:34:16.199Z,0
2016-09-23T04:35:16.163Z,0
2016-09-23T04:36:15.826Z,0
2016-09-23T04:37:16.082Z,0
2016-09-23T04:38:16.054Z,0
2016-09-23T04:39:16.015Z,0
2016-09-23T04:40:15.680Z,0
2016-09-23T04:41:15.939Z,0
2016-09-23T04:42:15.900Z,0
2016-09-23T04:43:15.568Z,0
2016-09-23T04:44:15.225Z,0
2016-09-23T04:45:15.501Z,0
2016-09-23T04:46:15.150Z,0
2016-09-23T04:47:15.419Z,0
2016-09-23T04:48:15.920Z,0
2016-09-23T04:49:15.641Z,0
2016-09-23T04:50:15.004Z,0
2016-09-23T04:51:15.574Z,0
2016-09-23T04:52:15.543Z,0
2016-09-23T04:53:15.513Z,0
2016-09-23T04:54:15.461Z,0
2016-09-23T04:55:14.827Z,0
2016-09-23T04:56:15.394Z,0
2016-09-23T04:57:15.048Z,0
2016-09-23T04:58:15.012Z,0
2016-09-23T04:59:15.273Z,0
2016-09-23T05:00:15.247Z,0
2016-09-23T05:01:14.611Z,0
2016-09-23T05:02:14.875Z,0
2016-09-23T05:03:15.048Z,0
2016-09-23T05:04:14.488Z,0
2016-09-23T05:05:14.771Z,0
2016-09-23T05:06:14.726Z,0
2016-09-23T05:07:14.984Z,0
2016-09-23T05:08:14.343Z,0
2016-09-23T05:09:14.603Z,0
2016-09-23T05:10:14.581Z,0
2016-09-23T05:11:14.841Z,0
2016-09-23T05:12:14.200Z,5
2016-09-23T05:13:14.773Z,5
2016-09-23T05:14:14.728Z,5
2016-09-23T05:15:14.389Z,5
2016-09-23T05:16:14.354Z,5
2016-09-23T05:17:14.014Z,5
2016-09-23T05:18:14.282Z,10
2016-09-23T05:19:14.241Z,10
2016-09-23T05:20:13.907Z,10
2016-09-23T05:21:13.257Z,10
2016-09-23T05:22:14.135Z,10
2016-09-23T05:23:13.800Z,10
2016-09-23T05:24:13.767Z,15
2016-09-23T05:25:14.025Z,15
2016-09-23T05:26:14.290Z,15
2016-09-23T05:27:13.957Z,15
2016-09-23T05:28:14.229Z,15
2016-09-23T05:29:14.182Z,20
2016-09-23T05:30:14.147Z,20
2016-09-23T05:31:13.503Z,20
2016-09-23T05:32:13.767Z,20
2016-09-23T05:33:13.428Z,25
2016-09-23T05:34:13.401Z,25
2016-09-23T05:35:13.663Z,30
2016-09-23T05:36:13.627Z,30
2016-09-23T05:37:13.597Z,35
2016-09-23T05:38:13.548Z,35
2016-09-23T05:39:13.818Z,35
2016-09-23T05:40:13.482Z,35
2016-09-23T05:41:13.447Z,40
2016-09-23T05:42:13.708Z,40
2016-09-23T05:43:13.369Z,45
2016-09-23T05:44:13.338Z,45
2016-09-23T05:45:13.306Z,45
2016-09-23T05:46:13.268Z,45
2016-09-23T05:47:13.527Z,45
2016-09-23T05:48:13.196Z,45
2016-09-23T05:49:13.153Z,45
2016-09-23T05:50:13.122Z,45
2016-09-23T05:51:13.399Z,45
2016-09-23T05:52:12.746Z,45
2016-09-23T05:53:13.018Z,45
2016-09-23T05:54:13.284Z,45
2016-09-23T05:55:13.244Z,45
2016-09-23T05:56:13.222Z,50
2016-09-23T05:57:12.864Z,50
2016-09-23T05:58:13.137Z,50
2016-09-23T05:59:12.805Z,55
2016-09-23T06:00:12.759Z,55
2016-09-23T06:01:12.733Z,50
2016-09-23T06:02:12.085Z,50
2016-09-23T06:03:12.653Z,55
2016-09-23T06:04:12.614Z,55
2016-09-23T06:05:12.580Z,50
2016-09-23T06:06:12.849Z,50
2016-09-23T06:07:12.222Z,50
2016-09-23T06:08:12.480Z,50
2016-09-23T06:09:12.143Z,50
2016-09-23T06:10:12.415Z,55
2016-09-23T06:11:12.673Z,50
2016-09-23T06:12:12.347Z,50
2016-09-23T06:13:12.302Z,50
2016-09-23T06:14:12.568Z,50
2016-09-23T06:15:11.623Z,60
2016-09-23T06:16:12.187Z,60
2016-09-23T06:17:11.857Z,55
2016-09-23T06:18:12.128Z,55
2016-09-23T06:19:12.395Z,60
2016-09-23T06:20:12.360Z,65
2016-09-23T06:21:12.328Z,65
2016-09-23T06:22:12.287Z,65
2016-09-23T06:23:11.947Z,70
2016-09-23T06:24:11.917Z,70
2016-09-23T06:25:11.878Z,65
2016-09-23T06:26:11.841Z,65
2016-09-23T06:27:12.118Z,65
2016-09-23T06:28:12.081Z,75
2016-09-23T06:29:12.063Z,80
2016-09-23T06:30:12.007Z,85
2016-09-23T06:31:11.068Z,85
2016-09-23T06:32:11.640Z,85
2016-09-23T06:33:11.899Z,80
2016-09-23T06:34:11.563Z,75
2016-09-23T06:35:11.525Z,75
2016-09-23T06:36:10.896Z,75
2016-09-23T06:37:11.463Z,75
2016-09-23T06:38:11.723Z,75
2016-09-23T06:39:11.091Z,80
2016-09-23T06:40:11.054Z,85
2016-09-23T06:41:11.625Z,90
2016-09-23T06:42:10.680Z,95
2016-09-23T06:43:10.650Z,105
2016-09-23T06:44:11.220Z,115
2016-09-23T06:45:11.184Z,130
2016-09-23T06:46:11.456Z,135
2016-09-23T06:47:11.413Z,150
2016-09-23T06:48:11.384Z,170
2016-09-23T06:49:11.048Z,160
2016-09-23T06:50:11.010Z,170
2016-09-23T06:51:10.674Z,190
2016-09-23T06:52:10.637Z,210
2016-09-23T06:53:11.215Z,235
2016-09-23T06:54:10.869Z,260
2016-09-23T06:55:10.537Z,245
2016-09-23T06:56:10.812Z,250
2016-09-23T06:57:10.469Z,260
2016-09-23T06:58:10.742Z,235
2016-09-23T06:59:10.998Z,275
2016-09-23T07:00:10.377Z,300
2016-09-23T07:01:10.635Z,290
2016-09-23T07:02:10.611Z,270
2016-09-23T07:03:10.576Z,250
2016-09-23T07:04:10.229Z,235
2016-09-23T07:05:10.802Z,280
2016-09-23T07:06:10.784Z,310
2016-09-23T07:07:10.745Z,310
2016-09-23T07:08:10.708Z,300
2016-09-23T07:09:10.070Z,265
2016-09-23T07:10:10.646Z,215
2016-09-23T07:11:10.309Z,185
2016-09-23T07:12:10.270Z,170
2016-09-23T07:13:10.542Z,165
2016-09-23T07:14:09.910Z,155
2016-09-23T07:15:10.472Z,145
2016-09-23T07:16:10.145Z,135
2016-09-23T07:17:09.813Z,140
2016-09-23T07:18:10.078Z,135
2016-09-23T07:19:09.743Z,135
2016-09-23T07:20:10.315Z,140
2016-09-23T07:21:09.976Z,140
2016-09-23T07:22:09.648Z,135
2016-09-23T07:23:09.920Z,120
2016-09-23T07:24:09.887Z,115
2016-09-23T07:25:09.845Z,120
2016-09-23T07:26:09.816Z,130
2016-09-23T07:27:08.874Z,135
2016-09-23T07:28:09.759Z,140
2016-09-23T07:29:10.022Z,145
2016-09-23T07:30:09.082Z,140
2016-09-23T07:31:09.644Z,145
2016-09-23T07:32:09.922Z,155
2016-09-23T07:33:09.586Z,155
2016-09-23T07:34:09.858Z,155
2016-09-23T07:35:09.816Z,155
2016-09-23T07:36:09.793Z,155
2016-09-23T07:37:09.755Z,165
2016-09-23T07:38:09.423Z,180
2016-09-23T07:39:08.482Z,190
2016-09-23T07:40:09.355Z,180
2016-09-23T07:41:09.618Z,185
2016-09-23T07:42:09.591Z,200
2016-09-23T07:43:08.954Z,210
2016-09-23T07:44:09.227Z,250
2016-09-23T07:45:09.497Z,290
2016-09-23T07:46:09.459Z,280
2016-09-23T07:47:09.124Z,280
2016-09-23T07:48:08.481Z,250
2016-09-23T07:49:09.057Z,225
2016-09-23T07:50:09.329Z,205
2016-09-23T07:51:08.690Z,190
2016-09-23T07:52:09.262Z,180
2016-09-23T07:53:08.622Z,170
2016-09-23T07:54:09.205Z,170
2016-09-23T07:55:08.561Z,200
2016-09-23T07:56:08.527Z,215
2016-09-23T07:57:09.098Z,210
2016-09-23T07:58:09.063Z,215
2016-09-23T07:59:09.037Z,220
2016-09-23T08:00:09.004Z,220
2016-09-23T08:01:08.673Z,225
2016-09-23T08:02:08.334Z,220
2016-09-23T08:03:08.907Z,215
2016-09-23T08:04:08.583Z,215
2016-09-23T08:05:07.927Z,230
2016-09-23T08:06:08.817Z,230
2016-09-23T08:07:08.775Z,225
2016-09-23T08:08:08.746Z,230
2016-09-23T08:09:08.110Z,235
2016-09-23T08:10:08.675Z,250
2016-09-23T08:11:08.350Z,265
2016-09-23T08:12:08.309Z,320
2016-09-23T08:13:08.280Z,295
2016-09-23T08:14:08.247Z,330
2016-09-23T08:15:07.914Z,375
2016-09-23T08:16:08.190Z,510
2016-09-23T08:17:07.840Z,530
2016-09-23T08:18:07.511Z,575
2016-09-23T08:19:07.786Z,570
2016-09-23T08:20:07.752Z,545
2016-09-23T08:21:07.416Z,535
2016-09-23T08:22:07.689Z,550
2016-09-23T08:23:07.960Z,570
2016-09-23T08:24:08.227Z,560
2016-09-23T08:25:07.608Z,615
2016-09-23T08:26:07.880Z,615
2016-09-23T08:27:07.839Z,580
2016-09-23T08:28:08.105Z,510
2016-09-23T08:29:07.767Z,435
2016-09-23T08:30:07.441Z,395
2016-09-23T08:31:08.013Z,400
2016-09-23T08:32:07.968Z,390
2016-09-23T08:33:07.966Z,395
2016-09-23T08:34:07.323Z,415
2016-09-23T08:35:07.892Z,470
2016-09-23T08:36:07.263Z,450
2016-09-23T08:37:07.228Z,430
2016-09-23T08:38:07.519Z,450
2016-09-23T08:39:07.783Z,475
2016-09-23T08:40:07.170Z,530
2016-09-23T08:41:07.412Z,675
2016-09-23T08:42:07.082Z,460
2016-09-23T08:43:07.362Z,360
2016-09-23T08:44:07.633Z,330
2016-09-23T08:45:07.006Z,315
2016-09-23T08:46:07.267Z,315
2016-09-23T08:47:06.935Z,315
2016-09-23T08:48:06.907Z,325
2016-09-23T08:49:07.177Z,335
2016-09-23T08:50:07.448Z,370
2016-09-23T08:51:07.114Z,380
2016-09-23T08:52:07.397Z,395
2016-09-23T08:53:07.062Z,530
2016-09-23T08:54:07.334Z,715
2016-09-23T08:55:07.309Z,515
2016-09-23T08:56:06.972Z,660
2016-09-23T08:57:07.244Z,720
2016-09-23T08:58:07.210Z,700
2016-09-23T08:59:06.973Z,685
2016-09-23T09:00:06.250Z,515
2016-09-23T09:01:06.829Z,410
2016-09-23T09:02:06.794Z,335
2016-09-23T09:03:06.765Z,310
2016-09-23T09:04:06.770Z,330
2016-09-23T09:05:07.007Z,315
2016-09-23T09:06:06.679Z,315
2016-09-23T09:07:06.652Z,305
2016-09-23T09:08:06.922Z,315
2016-09-23T09:09:06.289Z,325
2016-09-23T09:10:06.567Z,330
2016-09-23T09:11:06.228Z,335
2016-09-23T09:12:06.500Z,330
2016-09-23T09:13:06.481Z,295
2016-09-23T09:14:06.449Z,275
2016-09-23T09:15:06.427Z,275
2016-09-23T09:16:06.391Z,300
2016-09-23T09:17:06.362Z,365
2016-09-23T09:18:06.030Z,390
2016-09-23T09:19:06.596Z,370
2016-09-23T09:20:06.269Z,380
2016-09-23T09:21:06.550Z,395
2016-09-23T09:22:06.519Z,450
2016-09-23T09:23:06.182Z,650
2016-09-23T09:24:06.151Z,700
2016-09-23T09:25:06.134Z,630
2016-09-23T09:26:06.401Z,490
2016-09-23T09:27:05.764Z,415
2016-09-23T09:28:06.043Z,395
2016-09-23T09:29:06.016Z,390
2016-09-23T09:30:06.278Z,390
2016-09-23T09:31:05.655Z,375
2016-09-23T09:32:05.316Z,335
2016-09-23T09:33:06.194Z,315
2016-09-23T09:34:05.863Z,315
2016-09-23T09:35:05.534Z,345
2016-09-23T09:36:05.199Z,380
2016-09-23T09:37:06.084Z,395
2016-09-23T09:38:05.744Z,415
2016-09-23T09:39:05.739Z,460
2016-09-23T09:40:05.388Z,540
2016-09-23T09:41:05.355Z,625
2016-09-23T09:42:05.326Z,735
2016-09-23T09:43:05.601Z,715
2016-09-23T09:44:05.588Z,610
2016-09-23T09:45:05.536Z,580
2016-09-23T09:46:05.510Z,635
2016-09-23T09:47:05.185Z,635
2016-09-23T09:48:05.459Z,575
2016-09-23T09:49:05.131Z,545
2016-09-23T09:50:05.711Z,600
2016-09-23T09:51:05.377Z,645
2016-09-23T09:52:05.651Z,655
2016-09-23T09:53:05.320Z,605
2016-09-23T09:54:05.291Z,555
2016-09-23T09:55:04.659Z,505
2016-09-23T09:56:05.532Z,495
2016-09-23T09:57:05.509Z,530
2016-09-23T09:58:05.479Z,585
2016-09-23T09:59:05.145Z,685
2016-09-23T10:00:05.133Z,665
2016-09-23T10:01:05.093Z,690
2016-09-23T10:02:05.061Z,855
2016-09-23T10:03:05.032Z,1190
2016-09-23T10:04:05.013Z,1235
2016-09-23T10:05:04.686Z,1125
2016-09-23T10:06:04.952Z,1190
2016-09-23T10:07:04.325Z,1200
2016-09-23T10:08:04.901Z,1205
2016-09-23T10:09:05.177Z,1220
2016-09-23T10:10:04.549Z,1180
2016-09-23T10:11:04.824Z,1170
2016-09-23T10:12:04.804Z,1115
2016-09-23T10:13:04.783Z,1110
2016-09-23T10:14:04.749Z,1180
2016-09-23T10:15:05.034Z,1160
2016-09-23T10:16:04.723Z,1295
2016-09-23T10:17:04.081Z,1360
2016-09-23T10:18:04.650Z,1325
2016-09-23T10:19:04.931Z,1390
2016-09-23T10:20:04.610Z,1340
2016-09-23T10:21:04.581Z,1290
2016-09-23T10:22:04.563Z,945
2016-09-23T10:23:04.529Z,730
2016-09-23T10:24:04.811Z,820
2016-09-23T10:25:04.483Z,1340
2016-09-23T10:26:04.152Z,1405
2016-09-23T10:27:04.436Z,1445
2016-09-23T10:28:04.107Z,1470
2016-09-23T10:29:04.387Z,1435
2016-09-23T10:30:04.366Z,1240
2016-09-23T10:31:04.341Z,835
2016-09-23T10:32:04.320Z,1485
2016-09-23T10:33:03.991Z,1500
2016-09-23T10:34:04.583Z,1530
2016-09-23T10:35:04.553Z,1485
2016-09-23T10:36:04.534Z,1540
2016-09-23T10:37:04.511Z,1570
2016-09-23T10:38:03.881Z,1560
2016-09-23T10:39:03.860Z,1510
2016-09-23T10:40:04.129Z,1470
2016-09-23T10:41:04.127Z,1205
2016-09-23T10:42:03.797Z,995
2016-09-23T10:43:04.373Z,1000
2016-09-23T10:44:04.049Z,985
2016-09-23T10:45:04.024Z,960
2016-09-23T10:46:04.316Z,930
2016-09-23T10:47:04.281Z,890
2016-09-23T10:48:03.966Z,855
2016-09-23T10:49:03.939Z,835
2016-09-23T10:50:03.918Z,810
2016-09-23T10:51:04.201Z,820
2016-09-23T10:52:04.176Z,845
2016-09-23T10:53:03.551Z,890
2016-09-23T10:54:03.529Z,875
2016-09-23T10:55:03.505Z,865
2016-09-23T10:56:03.790Z,875
2016-09-23T10:57:03.766Z,890
2016-09-23T10:58:03.142Z,890
2016-09-23T10:59:04.028Z,880
2016-09-23T11:00:03.703Z,1065
2016-09-23T11:01:03.990Z,1215
2016-09-23T11:02:03.365Z,1230
2016-09-23T11:03:03.634Z,1295
2016-09-23T11:04:03.638Z,1320
2016-09-23T11:05:03.592Z,1445
2016-09-23T11:06:03.575Z,1490
2016-09-23T11:07:03.860Z,1560
2016-09-23T11:08:03.825Z,1505
2016-09-23T11:09:03.200Z,1315
2016-09-23T11:10:03.780Z,920
2016-09-23T11:11:03.458Z,750
2016-09-23T11:12:03.737Z,740
2016-09-23T11:13:02.807Z,730
2016-09-23T11:14:03.707Z,740
2016-09-23T11:15:03.674Z,730
2016-09-23T11:16:03.652Z,700
2016-09-23T11:17:03.319Z,690
2016-09-23T11:18:03.606Z,630
2016-09-23T11:19:02.978Z,600
2016-09-23T11:20:03.561Z,580
2016-09-23T11:21:02.933Z,580
2016-09-23T11:22:03.510Z,610
2016-09-23T11:23:03.218Z,690
2016-09-23T11:24:03.159Z,830
2016-09-23T11:25:03.150Z,855
2016-09-23T11:26:02.523Z,690
2016-09-23T11:27:03.095Z,560
2016-09-23T11:28:03.068Z,535
2016-09-23T11:29:02.737Z,545
2016-09-23T11:30:02.725Z,550
2016-09-23T11:31:03.012Z,545
2016-09-23T11:32:02.676Z,545
2016-09-23T11:33:02.949Z,525
2016-09-23T11:34:03.242Z,520
2016-09-23T11:35:02.911Z,510
2016-09-23T11:36:02.883Z,495
2016-09-23T11:37:03.156Z,490
2016-09-23T11:38:02.831Z,490
2016-09-23T11:39:02.807Z,485
2016-09-23T11:40:03.079Z,495
2016-09-23T11:41:02.460Z,470
2016-09-23T11:42:02.730Z,455
2016-09-23T11:43:02.411Z,440
2016-09-23T11:44:02.980Z,425
2016-09-23T11:45:02.661Z,420
2016-09-23T11:46:02.637Z,405
2016-09-23T11:47:02.598Z,405
2016-09-23T11:48:02.274Z,400
2016-09-23T11:49:02.563Z,410
2016-09-23T11:50:02.534Z,425
2016-09-23T11:51:02.503Z,430
2016-09-23T11:52:01.873Z,430
2016-09-23T11:53:02.156Z,425
2016-09-23T11:54:02.723Z,425
2016-09-23T11:55:02.093Z,420
2016-09-23T11:56:01.470Z,415
2016-09-23T11:57:02.042Z,415
2016-09-23T11:58:02.019Z,410
2016-09-23T11:59:01.697Z,405
2016-09-23T12:00:01.968Z,385
2016-09-23T12:01:01.929Z,390
2016-09-23T12:02:02.211Z,395
2016-09-23T12:03:02.487Z,390
2016-09-23T12:04:02.465Z,385
2016-09-23T12:05:02.131Z,375
2016-09-23T12:06:01.798Z,370
2016-09-23T12:07:02.380Z,370
2016-09-23T12:08:01.742Z,355
2016-09-23T12:09:02.039Z,355
2016-09-23T12:10:02.288Z,355
2016-09-23T12:11:01.699Z,360
2016-09-23T12:12:02.269Z,365
2016-09-23T12:13:02.209Z,360
2016-09-23T12:14:01.886Z,360
2016-09-23T12:15:01.562Z,360
2016-09-23T12:16:02.132Z,360
2016-09-23T12:17:01.808Z,350
2016-09-23T12:18:01.782Z,350
2016-09-23T12:19:02.055Z,350
2016-09-23T12:20:01.419Z,340
2016-09-23T12:21:01.095Z,335
2016-09-23T12:22:01.965Z,330
2016-09-23T12:23:01.943Z,325
2016-09-23T12:24:01.917Z,320
2016-09-23T12:25:01.893Z,320
2016-09-23T12:26:01.273Z,325
2016-09-23T12:27:01.827Z,340
2016-09-23T12:28:01.506Z,350
2016-09-23T12:29:00.869Z,355
2016-09-23T12:30:01.750Z,355
2016-09-23T12:31:01.111Z,380
2016-09-23T12:32:01.397Z,375
2016-09-23T12:33:01.361Z,350
2016-09-23T12:34:00.736Z,320
2016-09-23T12:35:01.310Z,315
2016-09-23T12:36:01.585Z,315
2016-09-23T12:37:01.566Z,320
2016-09-23T12:38:01.528Z,345
2016-09-23T12:39:00.897Z,340
2016-09-23T12:40:01.171Z,340
2016-09-23T12:41:01.141Z,350
2016-09-23T12:42:01.414Z,345
2016-09-23T12:43:00.806Z,320
2016-09-23T12:44:01.065Z,325
2016-09-23T12:45:00.739Z,335
2016-09-23T12:46:01.319Z,335
2016-09-23T12:47:00.692Z,335
2016-09-23T12:48:01.257Z,330
2016-09-23T12:49:01.237Z,330
2016-09-23T12:50:00.597Z,330
2016-09-23T12:51:01.170Z,330
2016-09-23T12:52:01.140Z,330
2016-09-23T12:53:01.122Z,325
2016-09-23T12:54:01.085Z,325
2016-09-23T12:55:01.064Z,330
2016-09-23T12:56:00.739Z,330
2016-09-23T12:57:01.004Z,325
2016-09-23T12:58:00.988Z,320
2016-09-23T12:59:00.952Z,310
2016-09-23T13:00:00.926Z,295
2016-09-23T13:01:00.592Z,285
2016-09-23T13:02:00.592Z,285
2016-09-23T13:03:00.240Z,285
2016-09-23T13:04:00.521Z,285
2016-09-23T13:05:00.177Z,285
2016-09-23T13:06:00.457Z,285
2016-09-23T13:07:00.438Z,280
2016-09-23T13:08:00.098Z,285
2016-09-23T13:09:00.077Z,290
2016-09-23T13:10:00.660Z,320
2016-09-23T13:11:00.332Z,325
2016-09-23T13:12:00.294Z,320
2016-09-23T13:13:00.272Z,315
2016-09-23T13:13:59.660Z,305
2016-09-23T13:15:00.534Z,295
2016-09-23T13:16:00.178Z,280
2016-09-23T13:17:00.161Z,275
2016-09-23T13:18:00.429Z,275
2016-09-23T13:19:00.401Z,270
2016-09-23T13:20:00.079Z,260
2016-09-23T13:20:59.745Z,250
2016-09-23T13:22:00.318Z,245
2016-09-23T13:22:59.993Z,250
2016-09-23T13:24:00.271Z,255
2016-09-23T13:24:59.928Z,250
2016-09-23T13:25:59.301Z,250
2016-09-23T13:27:00.185Z,240
2016-09-23T13:27:59.885Z,245
2016-09-23T13:28:59.840Z,245
2016-09-23T13:29:59.802Z,240
2016-09-23T13:30:59.770Z,240
2016-09-23T13:31:59.134Z,240
2016-09-23T13:32:59.636Z,240
2016-09-23T13:33:59.992Z,230
2016-09-23T13:34:59.654Z,230
2016-09-23T13:35:59.629Z,235
2016-09-23T13:36:59.913Z,235
2016-09-23T13:37:59.595Z,235
2016-09-23T13:38:59.855Z,235
2016-09-23T13:39:59.821Z,230
2016-09-23T13:40:59.182Z,230
2016-09-23T13:41:59.761Z,230
2016-09-23T13:42:59.439Z,235
2016-09-23T13:43:59.405Z,240
2016-09-23T13:44:59.680Z,240
2016-09-23T13:45:59.353Z,240
2016-09-23T13:46:59.325Z,235
2016-09-23T13:47:59.297Z,240
2016-09-23T13:48:59.275Z,240
2016-09-23T13:49:59.241Z,240
2016-09-23T13:50:58.911Z,240
2016-09-23T13:51:59.182Z,240
2016-09-23T13:52:59.164Z,245
2016-09-23T13:53:59.128Z,245
2016-09-23T13:54:59.105Z,245
2016-09-23T13:55:59.367Z,250
2016-09-23T13:56:58.739Z,255
2016-09-23T13:57:59.012Z,260
2016-09-23T13:58:58.690Z,260
2016-09-23T13:59:58.961Z,265
2016-09-23T14:00:59.225Z,265
2016-09-23T14:01:58.906Z,275
2016-09-23T14:02:57.966Z,260
2016-09-23T14:03:58.857Z,250
2016-09-23T14:04:58.825Z,250
2016-09-23T14:05:58.495Z,250
2016-09-23T14:06:59.060Z,250
2016-09-23T14:07:58.745Z,250
2016-09-23T14:08:58.403Z,240